createdAt,value
2023-03-26T00:01:25.086Z,16.60
2023-03-26T00:03:57.463Z,19.47
2023-03-26T00:06:26.977Z,15.83
2023-03-26T00:08:54.472Z,18.80
2023-03-26T00:11:23.012Z,11.27
2023-03-26T00:13:50.588Z,16.70
2023-03-26T00:16:19.785Z,15.77
2023-03-26T00:18:48.950Z,14.30
2023-03-26T00:21:17.317Z,16.27
2023-03-26T00:23:46.046Z,19.50
2023-03-26T00:26:13.484Z,13.43
2023-03-26T00:28:41.811Z,10.97
2023-03-26T00:31:10.706Z,22.20
2023-03-26T00:33:38.599Z,16.00
2023-03-26T00:36:09.869Z,7.13
2023-03-26T00:38:38.859Z,15.47
2023-03-26T00:41:07.991Z,11.03
2023-03-26T00:43:36.535Z,19.93
2023-03-26T00:46:04.090Z,7.93
2023-03-26T00:48:44.125Z,11.17
2023-03-26T00:51:15.206Z,8.73
2023-03-26T00:53:43.340Z,7.67
2023-03-26T00:56:10.825Z,8.80
2023-03-26T00:58:38.473Z,14.70
2023-03-26T01:01:08.077Z,7.63
2023-03-26T01:03:36.224Z,20.90
2023-03-26T01:06:08.082Z,6.53
2023-03-26T01:08:42.893Z,15.37
2023-03-26T01:11:14.376Z,11.40
2023-03-26T01:13:50.532Z,10.63
2023-03-26T01:16:27.396Z,13.47
2023-03-26T01:18:58.696Z,19.37
2023-03-26T01:21:30.174Z,21.43
2023-03-26T01:24:05.183Z,12.73
2023-03-26T01:26:44.026Z,8.43
2023-03-26T01:29:18.716Z,12.47
2023-03-26T01:31:53.356Z,20.87
2023-03-26T01:34:24.478Z,9.30
2023-03-26T01:36:58.665Z,19.97
2023-03-26T01:39:38.989Z,11.87
2023-03-26T01:42:09.469Z,14.30
2023-03-26T01:44:45.081Z,16.83
2023-03-26T01:47:13.465Z,15.77
2023-03-26T01:49:41.071Z,15.30
2023-03-26T01:52:15.493Z,15.53
2023-03-26T01:54:43.262Z,14.13
2023-03-26T01:57:15.503Z,17.80
2023-03-26T01:59:52.199Z,16.77
2023-03-26T02:02:28.461Z,11.33
2023-03-26T02:04:56.466Z,14.67
2023-03-26T02:07:34.530Z,27.40
2023-03-26T02:10:06.622Z,14.77
2023-03-26T02:12:35.233Z,15.67
2023-03-26T02:15:02.998Z,15.80
2023-03-26T02:17:32.628Z,18.30
2023-03-26T02:20:06.064Z,13.10
2023-03-26T02:22:40.745Z,29.10
2023-03-26T02:25:10.600Z,25.87
2023-03-26T02:27:38.716Z,20.03
2023-03-26T02:30:10.961Z,18.47
2023-03-26T02:32:38.883Z,20.70
2023-03-26T02:35:06.876Z,26.07
2023-03-26T02:37:34.840Z,16.73
2023-03-26T02:40:11.664Z,19.27
2023-03-26T02:42:42.130Z,15.70
2023-03-26T02:45:09.770Z,17.07
2023-03-26T02:48:06.176Z,29.63
2023-03-26T02:50:54.430Z,21.77
2023-03-26T02:53:49.632Z,27.67
2023-03-26T02:56:33.012Z,18.27
2023-03-26T02:59:17.252Z,19.67
2023-03-26T03:01:47.676Z,25.90
2023-03-26T03:04:17.997Z,21.33
2023-03-26T03:06:46.076Z,26.30
2023-03-26T03:09:13.832Z,29.73
2023-03-26T03:12:01.490Z,25.10
2023-03-26T03:14:28.941Z,24.77
2023-03-26T03:16:57.190Z,21.30
2023-03-26T03:19:24.643Z,23.77
2023-03-26T03:21:52.064Z,24.83
2023-03-26T03:24:19.609Z,31.90
2023-03-26T03:26:50.283Z,39.70
2023-03-26T03:29:33.830Z,33.00
2023-03-26T03:32:22.541Z,24.70
2023-03-26T03:34:52.030Z,24.70
2023-03-26T03:37:20.253Z,21.50
2023-03-26T03:39:52.441Z,25.00
2023-03-26T03:42:22.248Z,23.83
2023-03-26T03:44:55.550Z,24.60
2023-03-26T03:47:42.897Z,31.73
2023-03-26T03:50:11.271Z,24.93
2023-03-26T03:52:46.561Z,26.37
2023-03-26T03:55:17.296Z,21.20
2023-03-26T03:57:52.679Z,30.50
2023-03-26T04:00:22.585Z,25.27
2023-03-26T04:03:06.491Z,29.43
2023-03-26T04:05:34.723Z,23.07
2023-03-26T04:08:02.195Z,35.60
2023-03-26T04:10:29.570Z,25.93
2023-03-26T04:13:02.881Z,19.97
2023-03-26T04:15:52.120Z,38.63
2023-03-26T04:18:20.366Z,21.83
2023-03-26T04:20:48.140Z,20.67
2023-03-26T04:23:26.681Z,28.27
2023-03-26T04:26:17.079Z,21.90
2023-03-26T04:29:05.155Z,23.83
2023-03-26T04:31:34.187Z,25.13
2023-03-26T04:34:13.650Z,25.73
2023-03-26T04:36:54.646Z,35.53
2023-03-26T04:39:29.137Z,29.83
2023-03-26T04:42:33.291Z,32.50
2023-03-26T04:45:10.889Z,29.90
2023-03-26T04:47:46.674Z,28.63
2023-03-26T04:50:14.498Z,25.33
2023-03-26T04:52:44.555Z,48.83
2023-03-26T04:55:43.993Z,29.13
2023-03-26T04:58:20.863Z,36.57
2023-03-26T05:01:01.021Z,33.07
2023-03-26T05:03:40.695Z,42.27
2023-03-26T05:06:11.785Z,34.47
2023-03-26T05:08:39.221Z,38.87
2023-03-26T05:11:11.419Z,34.93
2023-03-26T05:13:39.153Z,32.20
2023-03-26T05:16:11.658Z,35.67
2023-03-26T05:18:42.174Z,43.57
2023-03-26T05:21:11.210Z,31.40
2023-03-26T05:23:40.426Z,38.20
2023-03-26T05:26:16.846Z,28.90
2023-03-26T05:28:44.284Z,37.70
2023-03-26T05:31:21.404Z,70.80
2023-03-26T05:33:52.090Z,34.00
2023-03-26T05:36:22.461Z,36.27
2023-03-26T05:39:00.475Z,42.47
2023-03-26T05:41:49.099Z,34.83
2023-03-26T05:44:17.303Z,30.97
2023-03-26T05:46:46.030Z,30.03
2023-03-26T05:49:20.779Z,30.60
2023-03-26T05:51:48.865Z,32.00
2023-03-26T05:54:32.092Z,29.47
2023-03-26T05:57:08.959Z,38.50
2023-03-26T05:59:58.840Z,23.97
2023-03-26T06:02:44.209Z,23.23
2023-03-26T06:05:32.661Z,35.23
2023-03-26T06:08:22.008Z,40.97
2023-03-26T06:10:52.002Z,37.77
2023-03-26T06:13:19.980Z,35.30
2023-03-26T06:15:49.461Z,30.27
2023-03-26T06:18:25.638Z,31.63
2023-03-26T06:21:11.728Z,31.70
2023-03-26T06:23:49.017Z,21.67
2023-03-26T06:26:42.247Z,24.83
2023-03-26T06:29:24.389Z,24.70
2023-03-26T06:32:20.505Z,27.27
2023-03-26T06:35:07.086Z,19.13
2023-03-26T06:37:34.671Z,23.63
2023-03-26T06:40:03.723Z,29.17
2023-03-26T06:43:09.996Z,36.07
2023-03-26T06:45:54.390Z,20.37
2023-03-26T06:48:37.088Z,34.63
2023-03-26T06:51:22.780Z,37.33
2023-03-26T06:54:15.866Z,25.63
2023-03-26T06:57:01.672Z,27.43
2023-03-26T06:59:29.092Z,26.03
2023-03-26T07:02:15.417Z,25.30
2023-03-26T07:05:01.372Z,21.17
2023-03-26T07:07:49.680Z,36.93
2023-03-26T07:10:17.665Z,35.10
2023-03-26T07:13:04.554Z,35.20
2023-03-26T07:15:53.632Z,25.37
2023-03-26T07:18:31.236Z,21.27
2023-03-26T07:20:59.564Z,26.90
2023-03-26T07:23:31.128Z,26.30
2023-03-26T07:26:34.432Z,24.80
2023-03-26T07:29:24.213Z,27.33
2023-03-26T07:32:17.222Z,25.50
2023-03-26T07:34:49.518Z,28.20
2023-03-26T07:37:41.069Z,40.33
2023-03-26T07:40:53.807Z,28.53
2023-03-26T07:44:03.749Z,36.03
2023-03-26T07:47:03.433Z,31.57
2023-03-26T07:49:43.567Z,22.27
2023-03-26T07:52:37.273Z,35.13
2023-03-26T07:55:30.423Z,29.10
2023-03-26T07:58:35.839Z,41.33
2023-03-26T08:01:37.219Z,33.33
2023-03-26T08:04:24.759Z,26.27
2023-03-26T08:07:36.132Z,22.50
2023-03-26T08:10:29.766Z,23.43
2023-03-26T08:13:11.609Z,33.50
2023-03-26T08:15:45.176Z,26.50
2023-03-26T08:18:12.545Z,28.80
2023-03-26T08:20:43.616Z,18.23
2023-03-26T08:23:23.557Z,22.00
2023-03-26T08:26:09.686Z,17.83
2023-03-26T08:28:48.695Z,20.97
2023-03-26T08:31:16.270Z,12.40
2023-03-26T08:33:45.039Z,12.07
2023-03-26T08:36:12.486Z,17.13
2023-03-26T08:38:39.901Z,11.20
2023-03-26T08:41:07.316Z,19.33
2023-03-26T08:43:48.977Z,8.93
2023-03-26T08:46:28.643Z,14.00
2023-03-26T08:49:15.901Z,13.60
2023-03-26T08:52:01.976Z,13.63
2023-03-26T08:54:48.667Z,12.20
2023-03-26T08:57:25.355Z,12.67
2023-03-26T09:00:13.280Z,24.73
2023-03-26T09:02:52.930Z,17.63
2023-03-26T09:05:26.428Z,18.60
2023-03-26T09:08:12.630Z,38.27
2023-03-26T09:10:58.970Z,25.07
2023-03-26T09:13:35.344Z,17.67
2023-03-26T09:16:11.876Z,21.20
2023-03-26T09:18:51.675Z,15.93
2023-03-26T09:21:31.190Z,14.90
2023-03-26T09:24:04.717Z,17.10
2023-03-26T09:26:46.744Z,15.80
2023-03-26T09:29:26.369Z,13.83
2023-03-26T09:32:09.433Z,19.33
2023-03-26T09:34:39.907Z,14.17
2023-03-26T09:37:32.482Z,8.73
2023-03-26T09:40:20.263Z,7.37
2023-03-26T09:42:55.712Z,17.13
2023-03-26T09:45:41.927Z,14.07
2023-03-26T09:48:24.246Z,16.77
2023-03-26T09:50:57.550Z,12.63
2023-03-26T09:53:40.417Z,16.33
2023-03-26T09:56:23.743Z,10.53
2023-03-26T09:59:05.585Z,8.73
2023-03-26T10:01:37.639Z,20.13
2023-03-26T10:04:16.712Z,20.50
2023-03-26T10:06:58.108Z,13.33
2023-03-26T10:09:25.831Z,12.93
2023-03-26T10:12:05.629Z,17.17
2023-03-26T10:14:36.374Z,16.13
2023-03-26T10:17:20.444Z,18.53
2023-03-26T10:19:58.705Z,16.20
2023-03-26T10:22:31.865Z,15.53
2023-03-26T10:25:05.481Z,14.50
2023-03-26T10:27:35.977Z,21.73
2023-03-26T10:30:09.616Z,16.83
2023-03-26T10:32:47.675Z,16.80
2023-03-26T10:35:21.255Z,18.20
2023-03-26T10:37:48.633Z,14.53
2023-03-26T10:40:22.561Z,20.07
2023-03-26T10:43:05.386Z,19.37
2023-03-26T10:45:32.778Z,20.17
2023-03-26T10:48:19.370Z,17.17
2023-03-26T10:50:51.308Z,17.97
2023-03-26T10:53:31.756Z,16.03
2023-03-26T10:56:03.557Z,15.77
2023-03-26T10:58:49.580Z,11.27
2023-03-26T11:01:38.945Z,11.53
2023-03-26T11:04:15.483Z,19.40
2023-03-26T11:06:51.577Z,23.27
2023-03-26T11:09:25.023Z,10.00
2023-03-26T11:11:58.535Z,16.50
2023-03-26T11:14:42.104Z,16.50
2023-03-26T11:17:39.657Z,19.40
2023-03-26T11:20:08.424Z,16.10
2023-03-26T11:22:41.556Z,15.53
2023-03-26T11:25:18.272Z,20.23
2023-03-26T11:27:48.658Z,23.73
2023-03-26T11:30:21.237Z,15.33
2023-03-26T11:33:01.492Z,15.80
2023-03-26T11:35:39.723Z,12.40
2023-03-26T11:38:30.043Z,14.93
2023-03-26T11:40:58.435Z,13.97
2023-03-26T11:43:49.685Z,11.30
2023-03-26T11:46:21.212Z,13.87
2023-03-26T11:48:54.334Z,12.87
2023-03-26T11:51:32.730Z,16.73
2023-03-26T11:54:03.785Z,15.63
2023-03-26T11:56:33.679Z,12.07
2023-03-26T11:59:01.469Z,17.07
2023-03-26T12:01:30.818Z,6.67
2023-03-26T12:04:15.361Z,14.03
2023-03-26T12:07:12.184Z,9.20
2023-03-26T12:09:49.836Z,17.53
2023-03-26T12:12:17.824Z,15.87
2023-03-26T12:14:45.805Z,7.83
2023-03-26T12:17:14.894Z,8.40
2023-03-26T12:19:43.723Z,16.00
2023-03-26T12:22:31.184Z,12.33
2023-03-26T12:25:02.965Z,10.00
2023-03-26T12:27:33.225Z,15.50
2023-03-26T12:30:10.890Z,13.27
2023-03-26T12:32:46.638Z,10.33
2023-03-26T12:35:20.125Z,16.73
2023-03-26T12:37:48.305Z,11.00
2023-03-26T12:40:36.510Z,10.93
2023-03-26T12:44:51.665Z,11.00
2023-03-26T12:47:26.402Z,8.07
2023-03-26T12:48:46.568Z,6.90
2023-03-26T12:51:40.556Z,10.63
2023-03-26T12:54:17.303Z,11.93
2023-03-26T12:57:12.518Z,10.20
2023-03-26T12:59:49.584Z,9.40
2023-03-26T13:02:23.129Z,9.60
2023-03-26T13:05:06.450Z,11.63
2023-03-26T13:07:43.788Z,9.50
2023-03-26T13:10:26.647Z,11.67
2023-03-26T13:13:23.476Z,15.43
2023-03-26T13:15:57.814Z,19.43
2023-03-26T13:18:35.664Z,18.27
2023-03-26T13:21:11.836Z,5.83
2023-03-26T13:23:45.313Z,12.17
2023-03-26T13:26:19.530Z,18.20
2023-03-26T13:28:53.205Z,22.67
2023-03-26T13:31:39.426Z,14.80
2023-03-26T13:34:27.649Z,20.20
2023-03-26T13:37:13.326Z,24.57
2023-03-26T13:39:40.930Z,20.80
2023-03-26T13:42:14.636Z,17.73
2023-03-26T13:45:05.098Z,15.63
2023-03-26T13:47:38.985Z,17.90
2023-03-26T13:50:15.981Z,30.83
2023-03-26T13:52:53.016Z,20.00
2023-03-26T13:55:27.046Z,17.03
2023-03-26T13:58:02.119Z,32.50
2023-03-26T14:00:36.577Z,23.53
2023-03-26T14:03:08.679Z,28.40
2023-03-26T14:05:40.024Z,33.17
2023-03-26T14:08:17.866Z,27.53
2023-03-26T14:10:48.237Z,25.47
2023-03-26T14:13:32.116Z,28.70
2023-03-26T14:16:06.479Z,18.93
2023-03-26T14:18:58.369Z,23.63
2023-03-26T14:21:40.220Z,23.90
2023-03-26T14:24:20.586Z,18.83
2023-03-26T14:27:06.663Z,34.30
2023-03-26T14:29:56.545Z,23.30
2023-03-26T14:32:33.426Z,13.63
2023-03-26T14:35:20.286Z,15.53
2023-03-26T14:37:50.973Z,26.93
2023-03-26T14:40:28.616Z,22.03
2023-03-26T14:43:13.271Z,22.77
2023-03-26T14:45:46.416Z,26.80
2023-03-26T14:48:14.091Z,18.00
2023-03-26T14:50:54.585Z,24.27
2023-03-26T14:53:28.062Z,17.43
2023-03-26T14:55:56.588Z,19.63
2023-03-26T14:58:24.112Z,29.73
2023-03-26T15:01:09.488Z,24.40
2023-03-26T15:03:55.749Z,16.93
2023-03-26T15:06:49.169Z,21.57
2023-03-26T15:09:19.701Z,25.73
2023-03-26T15:11:54.386Z,15.60
2023-03-26T15:14:59.130Z,16.80
2023-03-26T15:17:29.865Z,16.50
2023-03-26T15:20:16.301Z,13.83
2023-03-26T15:23:02.487Z,16.77
2023-03-26T15:25:39.809Z,18.07
2023-03-26T15:28:18.054Z,15.27
2023-03-26T15:31:06.588Z,16.93
2023-03-26T15:33:38.417Z,17.07
2023-03-26T15:36:21.429Z,13.30
2023-03-26T15:38:52.323Z,14.20
2023-03-26T15:41:32.395Z,21.53
2023-03-26T15:46:33.582Z,12.73
2023-03-26T15:49:11.740Z,14.03
2023-03-26T15:52:15.279Z,12.97
2023-03-26T15:55:01.305Z,18.57
2023-03-26T15:57:36.256Z,21.50
2023-03-26T16:00:15.470Z,14.10
2023-03-26T16:02:50.412Z,21.77
2023-03-26T16:05:39.210Z,17.10
2023-03-26T16:08:14.794Z,19.47
2023-03-26T16:10:56.139Z,30.87
2023-03-26T16:13:23.936Z,30.37
2023-03-26T16:16:17.231Z,37.43
2023-03-26T16:18:47.016Z,27.90
2023-03-26T16:21:30.656Z,27.27
2023-03-26T16:24:03.290Z,23.33
2023-03-26T16:26:37.802Z,22.37
2023-03-26T16:29:05.302Z,18.40
2023-03-26T16:31:38.252Z,17.27
2023-03-26T16:34:09.192Z,28.30
2023-03-26T16:36:43.312Z,21.77
2023-03-26T16:39:19.920Z,19.47
2023-03-26T16:42:06.370Z,8.20
2023-03-26T16:44:53.150Z,16.47
2023-03-26T16:47:24.397Z,20.03
2023-03-26T16:50:12.090Z,18.53
2023-03-26T16:52:45.377Z,22.53
2023-03-26T16:55:19.485Z,17.00
2023-03-26T16:57:53.683Z,17.50
2023-03-26T17:00:27.601Z,21.50
2023-03-26T17:06:53.710Z,15.87
2023-03-26T17:09:29.597Z,20.40
2023-03-26T17:12:06.677Z,20.83
2023-03-26T17:14:52.744Z,23.77
2023-03-26T17:17:37.499Z,22.93
2023-03-26T17:20:11.671Z,19.10
2023-03-26T17:22:39.375Z,17.73
2023-03-26T17:25:26.233Z,22.50
2023-03-26T17:28:28.232Z,19.40
2023-03-26T17:31:02.075Z,11.57
2023-03-26T17:33:30.909Z,20.00
2023-03-26T17:36:13.583Z,20.70
2023-03-26T17:38:45.271Z,28.90
2023-03-26T17:41:15.818Z,12.87
2023-03-26T17:43:51.061Z,23.70
2023-03-26T17:46:38.308Z,24.40
2023-03-26T17:49:14.074Z,22.03
2023-03-26T17:51:58.192Z,13.07
2023-03-26T17:54:34.717Z,12.07
2023-03-26T17:57:08.773Z,21.93
2023-03-26T17:59:39.240Z,15.83
2023-03-26T18:02:13.179Z,21.73
2023-03-26T18:04:45.077Z,9.07
2023-03-26T18:07:51.911Z,22.37
2023-03-26T18:10:28.838Z,12.27
2023-03-26T18:13:04.421Z,24.17
2023-03-26T18:15:45.024Z,11.80
2023-03-26T18:18:19.811Z,19.07
2023-03-26T18:20:49.182Z,26.67
2023-03-26T18:23:26.193Z,15.63
2023-03-26T18:25:57.308Z,19.37
2023-03-26T18:28:34.910Z,20.93
2023-03-26T18:31:28.798Z,20.13
2023-03-26T18:33:59.126Z,24.07
2023-03-26T18:36:28.008Z,14.67
2023-03-26T18:38:59.875Z,21.03
2023-03-26T18:41:33.077Z,10.93
2023-03-26T18:44:05.687Z,21.70
2023-03-26T18:46:34.402Z,16.03
2023-03-26T18:49:03.023Z,9.43
2023-03-26T18:51:32.066Z,18.37
2023-03-26T18:54:01.792Z,19.77
2023-03-26T18:56:31.639Z,32.73
2023-03-26T18:59:00.097Z,21.53
2023-03-26T19:01:32.066Z,16.70
2023-03-26T19:04:03.579Z,18.60
2023-03-26T19:06:35.844Z,15.37
2023-03-26T19:09:11.320Z,15.77
2023-03-26T19:11:49.027Z,13.37
2023-03-26T19:14:18.263Z,21.73
2023-03-26T19:16:48.072Z,17.00
2023-03-26T19:23:32.762Z,7.33
2023-03-26T19:26:01.738Z,21.93
2023-03-26T19:28:34.003Z,13.10
2023-03-26T19:31:08.141Z,19.97
2023-03-26T19:33:40.702Z,11.70
2023-03-26T19:36:20.017Z,21.73
2023-03-26T19:38:55.814Z,9.37
2023-03-26T19:41:27.096Z,17.33
2023-03-26T19:43:57.815Z,14.17
2023-03-26T19:46:26.284Z,10.97
2023-03-26T19:48:55.248Z,20.93
2023-03-26T19:51:25.640Z,22.20
2023-03-26T19:53:54.996Z,14.47
2023-03-26T19:56:23.710Z,8.93
2023-03-26T19:58:53.184Z,24.33
2023-03-26T20:01:27.976Z,16.90
2023-03-26T20:03:59.303Z,11.77
2023-03-26T20:06:42.534Z,11.10
2023-03-26T20:09:12.163Z,9.43
2023-03-26T20:11:40.774Z,16.07
2023-03-26T20:14:21.983Z,17.53
2023-03-26T20:16:49.865Z,13.07
2023-03-26T20:19:19.000Z,19.80
2023-03-26T20:21:46.633Z,15.93
2023-03-26T20:24:15.681Z,13.97
2023-03-26T20:26:44.845Z,18.77
2023-03-26T20:29:13.385Z,12.50
2023-03-26T20:31:41.908Z,14.90
2023-03-26T20:34:23.475Z,15.00
2023-03-26T20:37:01.259Z,12.20
2023-03-26T20:39:29.701Z,20.47
2023-03-26T20:41:57.127Z,21.40
2023-03-26T20:44:26.790Z,16.03
2023-03-26T20:46:56.438Z,9.87
2023-03-26T20:49:25.106Z,18.30
2023-03-26T20:51:52.725Z,10.80
2023-03-26T20:54:23.104Z,8.50
2023-03-26T20:56:51.680Z,30.03
2023-03-26T20:59:26.676Z,19.73
2023-03-26T21:01:56.497Z,22.03
2023-03-26T21:04:24.928Z,25.23
2023-03-26T21:06:57.530Z,10.97
2023-03-26T21:09:34.098Z,14.37
2023-03-26T21:12:09.657Z,16.13
2023-03-26T21:14:41.186Z,12.87
2023-03-26T21:17:16.561Z,21.20
2023-03-26T21:19:44.452Z,13.90
2023-03-26T21:22:18.090Z,7.60
2023-03-26T21:25:05.388Z,16.80
2023-03-26T21:27:41.210Z,16.30
2023-03-26T21:30:14.544Z,15.30
2023-03-26T21:32:42.528Z,11.97
2023-03-26T21:35:10.286Z,23.17
2023-03-26T21:37:38.290Z,16.43
2023-03-26T21:40:16.566Z,23.47
2023-03-26T21:42:51.583Z,13.07
2023-03-26T21:45:19.740Z,11.33
2023-03-26T21:47:47.328Z,17.10
2023-03-26T21:50:24.320Z,20.00
2023-03-26T21:52:52.244Z,9.67
2023-03-26T21:55:21.009Z,22.43
2023-03-26T21:57:54.589Z,13.77
2023-03-26T22:00:30.759Z,9.37
2023-03-26T22:03:16.647Z,20.50
2023-03-26T22:05:44.219Z,40.13
2023-03-26T22:08:19.660Z,23.33
2023-03-26T22:10:47.992Z,33.07
2023-03-26T22:13:15.408Z,20.73
2023-03-26T22:15:43.265Z,19.80
2023-03-26T22:18:10.670Z,15.27
2023-03-26T22:20:38.128Z,21.30
2023-03-26T22:23:06.728Z,23.43
2023-03-26T22:25:34.100Z,25.93
2023-03-26T22:28:02.000Z,21.20
2023-03-26T22:30:29.387Z,16.20
2023-03-26T22:32:56.930Z,19.03
2023-03-26T22:35:24.452Z,16.77
2023-03-26T22:37:51.888Z,14.60
2023-03-26T22:40:28.049Z,9.50
2023-03-26T22:42:55.768Z,21.30
2023-03-26T22:45:23.575Z,17.30
2023-03-26T22:47:51.080Z,16.27
2023-03-26T22:50:18.725Z,19.00
2023-03-26T22:52:46.398Z,21.53
2023-03-26T22:55:13.826Z,20.10
2023-03-26T22:57:56.325Z,20.13
2023-03-26T23:00:23.750Z,14.57
2023-03-26T23:02:51.197Z,13.07
2023-03-26T23:05:18.721Z,13.67
2023-03-26T23:07:46.435Z,20.63
2023-03-26T23:10:13.931Z,22.87
2023-03-26T23:12:42.532Z,21.50
2023-03-26T23:15:10.623Z,20.57
2023-03-26T23:17:38.674Z,15.17
2023-03-26T23:20:14.912Z,23.13
2023-03-26T23:22:43.093Z,13.20
2023-03-26T23:25:10.818Z,15.53
2023-03-26T23:27:38.306Z,30.70
2023-03-26T23:30:05.889Z,17.10
2023-03-26T23:32:37.800Z,10.27
2023-03-26T23:35:06.027Z,16.60
2023-03-26T23:37:35.135Z,11.53
2023-03-26T23:40:07.379Z,18.77
2023-03-26T23:42:34.928Z,15.87
2023-03-26T23:45:02.299Z,19.87
2023-03-26T23:47:34.682Z,10.67
2023-03-26T23:50:02.713Z,15.03
2023-03-26T23:52:30.525Z,22.33
2023-03-26T23:55:01.280Z,13.93
2023-03-26T23:57:29.071Z,15.07
2023-03-26T23:59:56.689Z,17.57
